createdAt,value
2023-03-26T06:28:39.198Z,82.00
2023-03-26T06:31:41.191Z,82.10
2023-03-26T06:34:42.867Z,82.10
2023-03-26T06:37:44.928Z,82.20
2023-03-26T06:40:46.635Z,82.30
2023-03-26T06:43:48.297Z,82.30
2023-03-26T06:46:50.242Z,82.30
2023-03-26T06:49:51.961Z,82.20
2023-03-26T06:52:56.522Z,82.30
2023-03-26T06:55:58.612Z,82.50
2023-03-26T06:59:00.285Z,82.50
2023-03-26T07:02:01.931Z,82.40
2023-03-26T07:05:03.875Z,82.50
2023-03-26T07:08:05.808Z,82.60
2023-03-26T07:11:10.231Z,82.60
2023-03-26T07:14:11.958Z,82.60
2023-03-26T07:17:13.784Z,82.70
2023-03-26T07:20:15.470Z,82.70
2023-03-26T07:23:20.451Z,82.80
2023-03-26T07:27:01.212Z,82.80
2023-03-26T07:30:11.360Z,82.80
2023-03-26T07:33:18.443Z,82.80
2023-03-26T07:36:26.146Z,82.90
2023-03-26T07:39:49.227Z,82.80
2023-03-26T07:43:06.597Z,82.80
2023-03-26T07:46:12.391Z,82.70
2023-03-26T07:49:14.352Z,82.70
2023-03-26T07:52:16.316Z,82.70
2023-03-26T07:55:18.905Z,82.70
2023-03-26T07:58:49.056Z,82.60
2023-03-26T08:02:19.806Z,82.60
2023-03-26T08:05:44.981Z,82.60
2023-03-26T08:09:11.386Z,82.60
2023-03-26T08:12:48.340Z,82.50
2023-03-26T08:16:01.087Z,82.60
2023-03-26T08:19:27.506Z,82.60
2023-03-26T08:22:36.634Z,82.70
2023-03-26T08:25:59.245Z,82.80
2023-03-26T08:29:19.932Z,82.90
2023-03-26T08:32:21.932Z,83.00
2023-03-26T08:35:27.024Z,82.90
2023-03-26T08:38:28.817Z,83.00
2023-03-26T08:42:01.291Z,83.10
2023-03-26T08:45:27.542Z,83.00
2023-03-26T08:49:18.848Z,82.90
2023-03-26T08:52:57.725Z,82.90
2023-03-26T08:56:12.930Z,82.80
2023-03-26T08:59:28.278Z,82.90
2023-03-26T09:02:45.077Z,83.00
2023-03-26T09:06:14.654Z,83.00
2023-03-26T09:09:45.418Z,83.10
2023-03-26T09:13:12.212Z,83.00
2023-03-26T09:16:29.335Z,82.90
2023-03-26T09:19:37.455Z,82.80
2023-03-26T09:22:52.353Z,82.90
2023-03-26T09:26:05.002Z,82.70
2023-03-26T09:29:39.237Z,82.70
2023-03-26T09:33:11.953Z,82.70
2023-03-26T09:36:32.249Z,82.60
2023-03-26T09:39:45.996Z,82.60
2023-03-26T09:43:16.735Z,82.20
2023-03-26T09:47:12.296Z,82.00
2023-03-26T09:50:13.942Z,82.00
2023-03-26T09:53:43.359Z,81.70
2023-03-26T09:57:03.096Z,81.70
2023-03-26T10:00:25.462Z,81.50
2023-03-26T10:03:51.064Z,81.40
2023-03-26T10:06:59.063Z,81.20
2023-03-26T10:10:17.172Z,81.20
2023-03-26T10:13:30.879Z,81.20
2023-03-26T10:17:11.264Z,81.40
2023-03-26T10:20:31.559Z,81.20
2023-03-26T10:23:39.675Z,81.40
2023-03-26T10:27:09.827Z,81.10
2023-03-26T10:30:43.456Z,80.90
2023-03-26T10:34:01.270Z,81.10
2023-03-26T10:37:13.658Z,81.00
2023-03-26T10:40:44.462Z,81.10
2023-03-26T10:44:05.214Z,81.20
2023-03-26T10:47:29.086Z,81.20
2023-03-26T10:51:05.722Z,81.00
2023-03-26T10:54:37.993Z,80.90
2023-03-26T10:57:50.750Z,80.80
2023-03-26T11:01:12.008Z,80.80
2023-03-26T11:04:35.638Z,80.60
2023-03-26T11:07:44.468Z,80.50
2023-03-26T11:11:09.564Z,80.60
2023-03-26T11:14:24.456Z,81.00
2023-03-26T11:17:39.600Z,81.30
2023-03-26T11:20:46.530Z,81.50
2023-03-26T11:24:04.522Z,81.50
2023-03-26T11:27:25.014Z,81.20
2023-03-26T11:30:53.943Z,81.10
2023-03-26T11:33:57.689Z,81.30
2023-03-26T11:36:59.395Z,81.40
2023-03-26T11:40:02.627Z,81.10
2023-03-26T11:43:06.437Z,80.50
2023-03-26T11:46:11.272Z,80.20
2023-03-26T11:49:13.361Z,79.90
2023-03-26T11:52:15.707Z,79.30
2023-03-26T11:55:17.936Z,78.70
2023-03-26T11:58:35.054Z,78.50
2023-03-26T12:01:56.590Z,78.20
2023-03-26T12:05:18.180Z,77.60
2023-03-26T12:08:22.194Z,77.60
2023-03-26T12:11:28.854Z,77.60
2023-03-26T12:14:33.592Z,77.80
2023-03-26T12:17:37.295Z,78.20
2023-03-26T12:20:39.260Z,78.70
2023-03-26T12:23:56.979Z,78.80
2023-03-26T12:27:02.118Z,78.70
2023-03-26T12:30:25.284Z,79.10
2023-03-26T12:33:34.628Z,79.40
2023-03-26T12:36:36.559Z,79.60
2023-03-26T12:40:09.449Z,79.60
2023-03-26T12:44:53.115Z,79.50
2023-03-26T12:47:56.097Z,79.50
2023-03-26T12:49:53.957Z,80.10
2023-03-26T12:53:07.803Z,81.00
2023-03-26T12:56:36.337Z,81.90
2023-03-26T13:00:00.202Z,82.70
2023-03-26T13:03:23.802Z,83.20
2023-03-26T13:06:26.577Z,83.70
2023-03-26T13:09:37.577Z,83.90
2023-03-26T13:13:05.118Z,84.10
2023-03-26T13:16:35.429Z,84.40
2023-03-26T13:19:37.485Z,84.60
2023-03-26T13:22:51.338Z,84.70
2023-03-26T13:25:55.914Z,84.70
2023-03-26T13:29:25.811Z,84.20
2023-03-26T13:32:49.383Z,83.80
2023-03-26T13:36:22.552Z,83.10
2023-03-26T13:39:33.242Z,82.80
2023-03-26T13:42:37.864Z,82.50
2023-03-26T13:45:45.405Z,82.20
2023-03-26T13:48:47.347Z,81.90
2023-03-26T13:51:50.700Z,82.10
2023-03-26T13:54:55.433Z,82.40
2023-03-26T13:58:14.289Z,82.50
2023-03-26T14:01:25.154Z,81.90
2023-03-26T14:04:33.199Z,81.00
2023-03-26T14:07:40.568Z,80.40
2023-03-26T14:10:45.797Z,80.00
2023-03-26T14:13:49.111Z,79.40
2023-03-26T14:16:53.675Z,79.20
2023-03-26T14:20:37.426Z,79.10
2023-03-26T14:23:58.042Z,79.10
2023-03-26T14:27:37.468Z,79.00
2023-03-26T14:31:32.581Z,79.20
2023-03-26T14:34:49.740Z,79.40
2023-03-26T14:38:02.490Z,78.80
2023-03-26T14:41:04.221Z,78.30
2023-03-26T14:44:47.988Z,78.30
2023-03-26T14:48:18.750Z,78.10
2023-03-26T14:51:41.192Z,77.90
2023-03-26T14:54:44.721Z,77.90
2023-03-26T14:58:08.217Z,77.80
2023-03-26T15:01:22.749Z,77.90
2023-03-26T15:04:47.228Z,77.60
2023-03-26T15:08:15.712Z,77.60
2023-03-26T15:11:17.350Z,77.60
2023-03-26T15:14:40.672Z,77.30
2023-03-26T15:17:56.468Z,77.10
2023-03-26T15:21:36.897Z,76.70
2023-03-26T15:25:16.069Z,76.40
2023-03-26T15:28:52.426Z,76.30
2023-03-26T15:32:05.318Z,76.20
2023-03-26T15:35:31.859Z,76.00
2023-03-26T15:38:48.381Z,75.70
2023-03-26T15:42:14.393Z,75.60
2023-03-26T15:45:56.491Z,75.60
2023-03-26T15:49:16.471Z,75.50
2023-03-26T15:52:44.628Z,75.10
2023-03-26T15:56:16.008Z,75.00
2023-03-26T15:59:40.700Z,74.60
2023-03-26T16:02:45.369Z,74.10
2023-03-26T16:06:14.020Z,73.60
2023-03-26T16:09:34.069Z,73.30
2023-03-26T16:13:13.361Z,73.20
2023-03-26T16:16:15.326Z,72.80
2023-03-26T16:19:20.649Z,72.90
2023-03-26T16:22:53.270Z,73.00
2023-03-26T16:26:12.578Z,72.70
2023-03-26T16:29:14.503Z,72.40
2023-03-26T16:32:17.784Z,72.40
2023-03-26T16:35:19.730Z,72.40
2023-03-26T16:38:24.825Z,72.50
2023-03-26T16:41:27.001Z,72.40
2023-03-26T16:44:36.567Z,72.30
2023-03-26T16:48:02.919Z,72.30
2023-03-26T16:51:43.779Z,72.50
2023-03-26T16:55:06.583Z,72.20
2023-03-26T16:58:15.172Z,72.10
2023-03-26T17:01:23.025Z,72.00
2023-03-26T17:04:27.741Z,72.00
2023-03-26T17:07:56.585Z,71.80
2023-03-26T17:11:21.537Z,71.80
2023-03-26T17:14:29.760Z,71.60
2023-03-26T17:18:04.733Z,71.00
2023-03-26T17:21:19.357Z,70.80
2023-03-26T17:24:45.452Z,70.20
2023-03-26T17:28:16.180Z,69.80
2023-03-26T17:31:39.949Z,69.60
2023-03-26T17:34:50.500Z,68.70
2023-03-26T17:37:52.475Z,68.50
2023-03-26T17:41:01.072Z,68.40
2023-03-26T17:44:07.002Z,68.20
2023-03-26T17:47:32.749Z,68.20
2023-03-26T17:50:54.163Z,68.10
2023-03-26T17:53:56.060Z,68.20
2023-03-26T17:57:04.285Z,68.40
2023-03-26T18:00:08.941Z,68.30
2023-03-26T18:03:31.240Z,68.30
2023-03-26T18:06:45.120Z,68.30
2023-03-26T18:10:05.993Z,68.30
2023-03-26T18:13:34.478Z,67.90
2023-03-26T18:16:43.341Z,67.90
2023-03-26T18:19:55.611Z,67.70
2023-03-26T18:22:57.502Z,67.30
2023-03-26T18:26:19.280Z,66.80
2023-03-26T18:29:21.477Z,66.70
2023-03-26T18:32:25.898Z,66.70
2023-03-26T18:35:41.927Z,66.90
2023-03-26T18:38:43.982Z,67.00
2023-03-26T18:41:45.830Z,66.90
2023-03-26T18:44:47.536Z,67.20
2023-03-26T18:47:52.273Z,67.20
2023-03-26T18:50:56.489Z,67.30
2023-03-26T18:53:59.547Z,67.40
2023-03-26T18:57:14.832Z,67.50
2023-03-26T19:00:23.206Z,67.40
2023-03-26T19:03:25.155Z,67.50
2023-03-26T19:06:27.052Z,67.60
2023-03-26T19:09:32.100Z,67.60
2023-03-26T19:12:35.759Z,67.40
2023-03-26T19:15:37.584Z,67.30
2023-03-26T19:18:39.282Z,67.30
2023-03-26T19:21:45.988Z,67.10
2023-03-26T19:24:47.811Z,67.20
2023-03-26T19:27:50.701Z,67.20
2023-03-26T19:30:54.481Z,67.40
2023-03-26T19:34:14.857Z,67.50
2023-03-26T19:37:27.335Z,67.50
2023-03-26T19:40:30.148Z,67.60
2023-03-26T19:43:34.261Z,67.60
2023-03-26T19:46:53.734Z,67.60
2023-03-26T19:50:01.760Z,67.80
2023-03-26T19:53:21.772Z,67.90
2023-03-26T19:56:23.651Z,68.10
2023-03-26T19:59:28.755Z,68.20
2023-03-26T20:02:30.695Z,68.30
2023-03-26T20:05:37.438Z,68.40
2023-03-26T20:08:42.713Z,68.50
2023-03-26T20:11:44.518Z,68.60
2023-03-26T20:14:46.436Z,68.80
2023-03-26T20:17:52.393Z,69.00
2023-03-26T20:20:55.056Z,69.10
2023-03-26T20:23:56.755Z,69.30
2023-03-26T20:26:58.450Z,69.40
2023-03-26T20:30:01.435Z,69.60
2023-03-26T20:33:11.904Z,69.80
2023-03-26T20:36:15.278Z,70.00
2023-03-26T20:39:36.129Z,69.90
2023-03-26T20:42:38.395Z,69.90
2023-03-26T20:45:40.472Z,70.10
2023-03-26T20:48:42.128Z,70.20
2023-03-26T20:51:45.060Z,70.40
2023-03-26T20:54:46.732Z,70.50
2023-03-26T20:57:49.000Z,70.50
2023-03-26T21:00:50.806Z,70.40
